Time;durP1;ratioP1;P1;durP2;ratioP2;P2;SDS_P1;SDS_P2;PMS_P1;PMS_P2;Temp;Humidity;BMP_temperature;BMP_pressure;BME280_temperature;BME280_humidity;BME280_pressure;Samples;Min_cycle;Max_cycle;Signal;HPM_P1;HPM_P2
2022/09/11 00:01:32;;;;;;;0.65;0.65;;;16.10;99.90;;;;;;5224899;28;20056;-73
2022/09/11 00:04:04;;;;;;;0.63;0.63;;;16.10;99.90;;;;;;5225202;28;20036;-73
2022/09/11 00:06:39;;;;;;;1.33;0.80;;;16.10;99.90;;;;;;5215347;28;20062;-72
2022/09/11 00:09:13;;;;;;;1.55;0.60;;;16.20;99.90;;;;;;5218188;28;20334;-74
2022/09/11 00:11:47;;;;;;;0.80;0.80;;;16.20;99.90;;;;;;5225838;28;20045;-72
2022/09/11 00:14:21;;;;;;;1.10;0.80;;;16.20;99.90;;;;;;5243503;28;20039;-72
2022/09/11 00:16:57;;;;;;;0.90;0.90;;;16.20;99.90;;;;;;5226809;28;20039;-73
2022/09/11 00:19:36;;;;;;;0.70;0.70;;;16.10;99.90;;;;;;5222006;28;20045;-72
2022/09/11 00:22:10;;;;;;;0.70;0.70;;;16.20;99.90;;;;;;5241111;28;20363;-73
2022/09/11 00:24:41;;;;;;;1.45;0.82;;;16.20;99.90;;;;;;5224853;28;20040;-73
2022/09/11 00:27:15;;;;;;;1.40;0.85;;;16.00;99.90;;;;;;5224486;28;20409;-73
2022/09/11 00:29:48;;;;;;;1.10;0.80;;;15.90;99.90;;;;;;5208133;28;20048;-73
2022/09/11 00:32:23;;;;;;;0.77;0.70;;;15.90;99.90;;;;;;5224661;28;20040;-73
2022/09/11 00:34:57;;;;;;;0.70;0.70;;;15.90;99.90;;;;;;5223910;28;20273;-72
2022/09/11 00:37:31;;;;;;;2.08;0.88;;;16.00;99.90;;;;;;5234358;28;20165;-74
2022/09/11 00:40:03;;;;;;;1.60;0.73;;;16.00;99.90;;;;;;5237498;28;20036;-72
2022/09/11 00:42:43;;;;;;;0.60;0.60;;;15.90;99.90;;;;;;5261739;28;20051;-72
2022/09/11 00:45:31;;;;;;;0.80;0.80;;;15.80;99.90;;;;;;5263493;28;20065;-72
2022/09/11 00:48:11;;;;;;;1.75;0.85;;;15.70;99.90;;;;;;5228234;28;20032;-72
2022/09/11 00:50:47;;;;;;;0.80;0.80;;;15.70;99.90;;;;;;5225510;28;20252;-73
2022/09/11 00:53:25;;;;;;;0.77;0.77;;;15.80;99.90;;;;;;5208808;28;20059;-72
2022/09/11 00:56:05;;;;;;;0.95;0.70;;;16.00;99.90;;;;;;5224943;28;20039;-72
2022/09/11 00:58:47;;;;;;;0.70;0.70;;;16.00;99.90;;;;;;5203964;28;20037;-73
2022/09/11 01:01:18;;;;;;;1.25;0.88;;;15.90;99.90;;;;;;5203044;28;20049;-73
2022/09/11 01:03:50;;;;;;;1.92;0.98;;;16.00;99.90;;;;;;5226495;28;20047;-73
2022/09/11 01:06:25;;;;;;;0.90;0.80;;;15.90;99.90;;;;;;5218675;28;20067;-73
2022/09/11 01:08:59;;;;;;;1.10;1.00;;;16.00;99.90;;;;;;5223565;28;20086;-73
2022/09/11 01:11:48;;;;;;;0.90;0.90;;;15.90;99.90;;;;;;5224877;28;20051;-73
2022/09/11 01:14:39;;;;;;;0.85;0.85;;;15.90;99.90;;;;;;5241955;28;20040;-74
2022/09/11 01:17:14;;;;;;;0.80;0.80;;;15.90;99.90;;;;;;5238662;28;20041;-74
2022/09/11 01:20:31;;;;;;;1.20;0.80;;;15.90;99.90;;;;;;5236453;28;20654;-74
2022/09/11 01:23:37;;;;;;;0.80;0.80;;;15.90;99.90;;;;;;5219134;28;20348;-74
2022/09/11 01:26:40;;;;;;;0.90;0.90;;;15.80;99.90;;;;;;5229433;28;20045;-74
2022/09/11 01:29:22;;;;;;;1.25;1.00;;;15.80;99.90;;;;;;5231586;28;20037;-75
2022/09/11 01:32:11;;;;;;;1.13;1.00;;;15.80;99.90;;;;;;5240823;28;20033;-72
2022/09/11 01:34:52;;;;;;;0.80;0.80;;;15.80;99.90;;;;;;5208817;28;20048;-72
2022/09/11 01:37:38;;;;;;;0.80;0.80;;;15.90;99.90;;;;;;5226403;28;20237;-72
2022/09/11 01:40:26;;;;;;;0.75;0.75;;;15.90;99.90;;;;;;5205172;28;20246;-74
2022/09/11 01:43:15;;;;;;;0.90;0.90;;;15.90;99.90;;;;;;5221184;28;20048;-72
2022/09/11 01:45:50;;;;;;;0.95;0.80;;;15.90;99.90;;;;;;5223249;28;20029;-73
2022/09/11 01:48:30;;;;;;;0.93;0.93;;;15.90;99.90;;;;;;5223134;28;20042;-74
2022/09/11 01:51:20;;;;;;;0.90;0.90;;;15.80;99.90;;;;;;5223499;28;20032;-74
2022/09/11 01:53:55;;;;;;;0.88;0.88;;;15.90;99.90;;;;;;5205779;28;20036;-72
2022/09/11 01:56:33;;;;;;;;;;;15.80;99.90;;;;;;5206596;28;20054;-73
2022/09/11 01:59:12;;;;;;;1.10;0.90;;;15.80;99.90;;;;;;5223456;28;19922;-73
2022/09/11 02:01:52;;;;;;;1.13;1.00;;;15.80;99.90;;;;;;5222965;28;20036;-73
2022/09/11 02:04:34;;;;;;;1.15;1.02;;;15.90;99.90;;;;;;5209273;28;20199;-74
2022/09/11 02:07:22;;;;;;;0.90;0.68;;;15.90;99.90;;;;;;5225951;28;20497;-72
2022/09/11 02:10:13;;;;;;;1.10;0.80;;;15.80;99.90;;;;;;5224589;28;20047;-75
2022/09/11 02:13:14;;;;;;;0.90;0.90;;;15.80;99.90;;;;;;5222750;28;20089;-73
2022/09/11 02:15:56;;;;;;;1.13;1.02;;;15.90;99.90;;;;;;5223462;28;20266;-74
2022/09/11 02:18:42;;;;;;;1.83;1.08;;;15.90;99.90;;;;;;5222936;28;20059;-73
2022/09/11 02:21:16;;;;;;;1.00;1.00;;;15.90;99.90;;;;;;5206158;28;20279;-75
2022/09/11 02:23:48;;;;;;;1.23;1.10;;;16.00;99.90;;;;;;5239979;28;20036;-74
2022/09/11 02:26:23;;;;;;;0.88;0.88;;;16.00;99.90;;;;;;5222714;28;20404;-74
2022/09/11 02:28:55;;;;;;;0.80;0.80;;;16.00;99.90;;;;;;5220956;28;20040;-74
2022/09/11 02:31:30;;;;;;;1.42;0.85;;;16.00;99.90;;;;;;5240318;28;20020;-72
2022/09/11 02:34:07;;;;;;;1.10;0.90;;;16.00;99.90;;;;;;5207570;28;20036;-72
2022/09/11 02:37:02;;;;;;;0.70;0.70;;;16.00;99.90;;;;;;5225952;28;20071;-73
2022/09/11 02:40:02;;;;;;;1.08;0.98;;;16.00;99.90;;;;;;5250979;28;20046;-72
2022/09/11 02:42:56;;;;;;;0.77;0.77;;;16.00;99.90;;;;;;5210196;28;20043;-73
2022/09/11 02:45:56;;;;;;;1.88;0.68;;;15.90;99.90;;;;;;5205260;28;20051;-73
2022/09/11 02:48:59;;;;;;;1.05;0.88;;;15.90;99.90;;;;;;5239651;28;20249;-72
2022/09/11 02:51:54;;;;;;;1.30;1.20;;;15.90;99.90;;;;;;5239465;28;20036;-72
2022/09/11 02:55:15;;;;;;;0.90;0.90;;;15.90;99.90;;;;;;5204517;28;20032;-72
2022/09/11 02:58:01;;;;;;;0.90;0.90;;;15.80;99.90;;;;;;5227317;28;20232;-74
2022/09/11 03:00:34;;;;;;;1.48;1.13;;;15.80;99.90;;;;;;5220966;28;20240;-72
2022/09/11 03:03:06;;;;;;;1.10;1.10;;;15.80;99.90;;;;;;5206863;28;20162;-74
2022/09/11 03:05:41;;;;;;;1.20;1.00;;;15.80;99.90;;;;;;5214550;28;20158;-72
2022/09/11 03:08:15;;;;;;;0.90;0.90;;;15.70;99.90;;;;;;5224503;28;20033;-74
2022/09/11 03:10:48;;;;;;;;;;;15.70;99.90;;;;;;5229975;28;20330;-72
2022/09/11 03:13:20;;;;;;;1.50;1.10;;;15.70;99.90;;;;;;5237534;28;20093;-72
2022/09/11 03:15:53;;;;;;;2.50;1.25;;;15.70;99.90;;;;;;5222967;28;20043;-72
2022/09/11 03:18:26;;;;;;;1.00;1.00;;;15.70;99.90;;;;;;5223785;28;20211;-73
2022/09/11 03:21:02;;;;;;;1.40;1.30;;;15.70;99.90;;;;;;5242464;28;20032;-72
2022/09/11 03:23:37;;;;;;;1.15;1.13;;;15.70;99.90;;;;;;5219094;28;20039;-72
2022/09/11 03:26:20;;;;;;;1.08;1.08;;;15.70;99.90;;;;;;5223830;28;20063;-72
2022/09/11 03:28:57;;;;;;;1.13;1.13;;;15.80;99.90;;;;;;5223624;28;20040;-72
2022/09/11 03:31:34;;;;;;;1.35;0.90;;;15.80;99.90;;;;;;5240645;28;20075;-73
2022/09/11 03:34:10;;;;;;;1.38;0.98;;;15.80;99.90;;;;;;5251845;28;20257;-72
2022/09/11 03:36:46;;;;;;;0.90;0.90;;;15.80;99.90;;;;;;5258251;28;20229;-72
2022/09/11 03:39:18;;;;;;;1.38;1.00;;;15.80;99.90;;;;;;5225350;28;20048;-72
2022/09/11 03:41:53;;;;;;;1.17;1.10;;;15.80;99.90;;;;;;5225734;28;20040;-73
2022/09/11 03:44:29;;;;;;;2.95;1.10;;;15.90;99.90;;;;;;5242536;28;20039;-72
2022/09/11 03:47:01;;;;;;;1.58;1.00;;;15.80;99.90;;;;;;5222298;28;20357;-73
2022/09/11 03:49:33;;;;;;;1.10;1.10;;;15.80;99.90;;;;;;5220499;28;20029;-73
2022/09/11 03:52:07;;;;;;;0.90;0.90;;;15.80;99.90;;;;;;5205049;28;20330;-73
2022/09/11 03:54:38;;;;;;;1.73;1.20;;;15.80;99.90;;;;;;5234887;28;20048;-73
2022/09/11 03:57:10;;;;;;;1.00;1.00;;;15.90;99.90;;;;;;5241097;28;20313;-73
2022/09/11 03:59:41;;;;;;;5.03;0.93;;;16.00;99.90;;;;;;5234869;28;20233;-73
2022/09/11 04:02:15;;;;;;;1.00;1.00;;;15.90;99.90;;;;;;5231020;28;20046;-73
2022/09/11 04:04:52;;;;;;;2.47;1.15;;;15.90;99.90;;;;;;5247354;28;20079;-73
2022/09/11 04:07:32;;;;;;;1.55;1.20;;;15.90;99.90;;;;;;5213977;28;20036;-73
2022/09/11 04:10:07;;;;;;;0.98;0.98;;;15.90;99.90;;;;;;5235441;28;20058;-73
2022/09/11 04:12:43;;;;;;;2.22;1.00;;;15.90;99.90;;;;;;5242228;28;20573;-72
2022/09/11 04:15:17;;;;;;;1.35;0.80;;;15.90;99.90;;;;;;5241591;28;20222;-72
2022/09/11 04:17:49;;;;;;;1.27;1.17;;;15.90;99.90;;;;;;5243180;28;20378;-72
2022/09/11 04:20:25;;;;;;;0.75;0.75;;;15.80;99.90;;;;;;5242030;28;20044;-72
2022/09/11 04:22:59;;;;;;;1.15;1.08;;;15.80;99.90;;;;;;5220154;28;20468;-72
2022/09/11 04:25:30;;;;;;;1.00;1.00;;;15.80;99.90;;;;;;5232730;28;20046;-73
2022/09/11 04:28:04;;;;;;;1.10;1.10;;;15.80;99.90;;;;;;5222705;28;20024;-73
2022/09/11 04:30:38;;;;;;;1.20;1.10;;;15.80;99.90;;;;;;5228252;28;20231;-74
2022/09/11 04:33:12;;;;;;;2.40;1.33;;;15.80;99.90;;;;;;5241602;28;20056;-72
2022/09/11 04:35:51;;;;;;;1.00;1.00;;;15.80;99.90;;;;;;5240875;28;20721;-73
2022/09/11 04:38:22;;;;;;;2.00;1.13;;;15.80;99.90;;;;;;5207457;28;20126;-74
2022/09/11 04:40:59;;;;;;;1.52;1.20;;;15.90;99.90;;;;;;5223998;28;20044;-72
2022/09/11 04:43:38;;;;;;;1.63;1.30;;;15.90;99.90;;;;;;5224095;28;20047;-74
2022/09/11 04:46:20;;;;;;;1.23;1.13;;;16.00;99.90;;;;;;5207017;28;20047;-74
2022/09/11 04:49:01;;;;;;;2.53;1.30;;;16.00;99.90;;;;;;5242546;28;20222;-74
2022/09/11 04:51:40;;;;;;;1.38;1.15;;;16.00;99.90;;;;;;5224851;28;20051;-74
2022/09/11 04:54:22;;;;;;;1.50;1.23;;;16.00;99.90;;;;;;5240494;28;20049;-74
2022/09/11 04:56:54;;;;;;;1.48;1.38;;;16.10;99.90;;;;;;5241181;28;20021;-74
2022/09/11 04:59:28;;;;;;;1.77;1.40;;;16.10;99.90;;;;;;5241998;28;20334;-74
2022/09/11 05:02:04;;;;;;;1.83;1.65;;;16.10;99.90;;;;;;5253245;28;20102;-74
2022/09/11 05:04:37;;;;;;;2.03;1.63;;;16.20;99.90;;;;;;5214378;28;20060;-75
2022/09/11 05:07:14;;;;;;;2.10;1.57;;;16.20;99.90;;;;;;5225170;28;20028;-74
2022/09/11 05:09:46;;;;;;;2.13;1.40;;;16.20;99.90;;;;;;5241972;28;20047;-74
2022/09/11 05:12:23;;;;;;;1.55;1.40;;;16.30;99.90;;;;;;5241314;28;20354;-74
2022/09/11 05:14:54;;;;;;;1.52;1.42;;;16.40;99.90;;;;;;5224248;28;20316;-73
2022/09/11 05:17:25;;;;;;;1.20;1.10;;;16.40;99.90;;;;;;5243753;28;20032;-74
2022/09/11 05:20:00;;;;;;;1.38;1.30;;;16.40;99.90;;;;;;5217909;28;20039;-74
2022/09/11 05:22:34;;;;;;;;;;;16.40;99.90;;;;;;5222289;28;20031;-73
2022/09/11 05:25:07;;;;;;;2.08;1.33;;;16.40;99.90;;;;;;5222148;28;20110;-74
2022/09/11 05:27:43;;;;;;;1.20;1.10;;;16.40;99.90;;;;;;5227631;28;20207;-73
2022/09/11 05:30:18;;;;;;;1.20;1.10;;;16.40;99.90;;;;;;5249997;28;20043;-73
2022/09/11 05:32:55;;;;;;;1.20;1.02;;;16.40;99.90;;;;;;5232575;28;20025;-74
2022/09/11 05:35:30;;;;;;;0.80;0.80;;;16.40;99.90;;;;;;5216913;28;20033;-73
2022/09/11 05:38:03;;;;;;;1.80;1.70;;;16.20;99.90;;;;;;5239274;28;20043;-73
2022/09/11 05:40:36;;;;;;;1.70;1.60;;;16.20;99.90;;;;;;5239432;28;20435;-74
2022/09/11 05:43:14;;;;;;;2.05;1.10;;;16.00;99.90;;;;;;5236659;28;20040;-73
2022/09/11 05:45:55;;;;;;;1.40;1.30;;;15.80;99.90;;;;;;5214864;28;20048;-74
2022/09/11 05:48:37;;;;;;;1.17;0.98;;;15.70;99.90;;;;;;5203580;28;20042;-73
2022/09/11 05:51:19;;;;;;;2.08;1.05;;;15.70;99.90;;;;;;5223689;28;20337;-73
2022/09/11 05:53:59;;;;;;;1.35;1.20;;;15.80;99.90;;;;;;5222048;28;20384;-74
2022/09/11 05:56:31;;;;;;;1.35;1.05;;;16.00;99.90;;;;;;5237572;28;20041;-73
2022/09/11 05:59:14;;;;;;;1.50;1.40;;;16.10;99.90;;;;;;5238707;28;20070;-74
2022/09/11 06:01:46;;;;;;;1.20;1.10;;;16.00;99.90;;;;;;5222148;28;20039;-73
2022/09/11 06:04:20;;;;;;;1.10;1.10;;;16.10;99.90;;;;;;5222609;28;20055;-73
2022/09/11 06:06:55;;;;;;;1.55;1.45;;;16.10;99.90;;;;;;5218917;28;20362;-74
2022/09/11 06:09:30;;;;;;;;;;;16.20;99.90;;;;;;5227932;28;20032;-74
2022/09/11 06:12:02;;;;;;;0.98;0.98;;;16.20;99.90;;;;;;5242084;28;19914;-74
2022/09/11 06:14:36;;;;;;;1.67;1.30;;;16.20;99.90;;;;;;5240161;28;20374;-74
2022/09/11 06:17:08;;;;;;;1.15;1.08;;;16.30;99.90;;;;;;5222045;28;20217;-74
2022/09/11 06:19:41;;;;;;;1.30;1.20;;;16.30;99.90;;;;;;5200327;28;20033;-73
2022/09/11 06:22:12;;;;;;;3.72;1.50;;;16.30;99.90;;;;;;5219508;28;20056;-73
2022/09/11 06:24:47;;;;;;;2.38;1.20;;;16.30;99.90;;;;;;5223425;28;20028;-74
2022/09/11 06:27:19;;;;;;;1.48;1.20;;;16.30;99.90;;;;;;5241872;28;20044;-75
2022/09/11 06:29:50;;;;;;;1.65;1.55;;;16.30;99.90;;;;;;5240280;28;20261;-74
2022/09/11 06:32:22;;;;;;;2.92;0.93;;;16.30;99.90;;;;;;5220286;28;20044;-74
2022/09/11 06:34:57;;;;;;;1.45;0.90;;;16.40;99.90;;;;;;5232466;28;20321;-74
2022/09/11 06:37:29;;;;;;;0.90;0.90;;;16.30;99.90;;;;;;5219353;28;20040;-73
2022/09/11 06:40:07;;;;;;;1.25;1.10;;;16.40;99.90;;;;;;5235370;28;20068;-73
2022/09/11 06:42:40;;;;;;;1.08;1.00;;;16.60;99.90;;;;;;5220048;28;20044;-73
2022/09/11 06:45:16;;;;;;;2.17;1.08;;;16.80;99.90;;;;;;5242819;28;20044;-74
2022/09/11 06:47:50;;;;;;;1.95;0.98;;;17.00;99.90;;;;;;5214737;28;20032;-74
2022/09/11 06:50:24;;;;;;;;;;;17.00;99.90;;;;;;5202534;28;20049;-73
2022/09/11 06:53:02;;;;;;;1.10;1.00;;;17.20;99.90;;;;;;5228185;28;19927;-74
2022/09/11 06:55:34;;;;;;;1.85;1.35;;;17.30;99.90;;;;;;5255575;28;20103;-74
2022/09/11 06:58:10;;;;;;;0.82;0.82;;;17.40;99.90;;;;;;5226907;28;20602;-74
2022/09/11 07:00:49;;;;;;;0.90;0.90;;;17.60;99.90;;;;;;5225368;28;20041;-74
2022/09/11 07:03:23;;;;;;;1.67;1.55;;;17.80;99.90;;;;;;5226832;28;20223;-74
2022/09/11 07:05:57;;;;;;;0.90;0.90;;;17.70;99.90;;;;;;5235657;28;20060;-74
2022/09/11 07:08:29;;;;;;;1.45;1.30;;;17.80;99.90;;;;;;5200513;28;20052;-74
2022/09/11 07:11:05;;;;;;;1.45;1.30;;;17.60;99.90;;;;;;5207433;28;20048;-74
2022/09/11 07:13:40;;;;;;;1.30;1.20;;;17.50;99.90;;;;;;5226334;28;20042;-74
2022/09/11 07:16:15;;;;;;;1.60;1.30;;;17.60;99.90;;;;;;5221693;28;20053;-74
2022/09/11 07:18:49;;;;;;;2.17;1.20;;;17.50;99.90;;;;;;5225550;28;20036;-73
2022/09/11 07:21:28;;;;;;;1.40;1.35;;;17.40;99.90;;;;;;5227330;28;20040;-73
2022/09/11 07:24:08;;;;;;;1.85;0.98;;;17.30;99.90;;;;;;5217504;28;20463;-74
2022/09/11 07:26:41;;;;;;;1.45;1.35;;;17.30;99.90;;;;;;5236584;28;20028;-74
2022/09/11 07:29:13;;;;;;;3.10;1.40;;;17.30;99.90;;;;;;5200998;28;20044;-74
2022/09/11 07:31:45;;;;;;;1.40;1.30;;;17.30;99.90;;;;;;5241906;28;20032;-74
2022/09/11 07:34:24;;;;;;;1.98;1.23;;;17.30;99.90;;;;;;5242960;28;20033;-74
2022/09/11 07:36:58;;;;;;;1.45;1.35;;;17.50;99.90;;;;;;5242236;28;20054;-74
2022/09/11 07:39:37;;;;;;;2.00;1.42;;;17.30;99.90;;;;;;5239975;28;20048;-74
2022/09/11 07:42:10;;;;;;;1.65;1.55;;;17.50;99.90;;;;;;5204577;28;20071;-74
2022/09/11 07:44:44;;;;;;;2.25;1.60;;;17.70;99.90;;;;;;5237618;28;20044;-74
2022/09/11 07:47:16;;;;;;;2.65;1.70;;;17.70;99.90;;;;;;5240382;28;20032;-75
2022/09/11 07:49:47;;;;;;;1.65;1.55;;;17.60;99.90;;;;;;5242568;28;20510;-74
2022/09/11 07:52:19;;;;;;;3.35;2.15;;;17.50;99.90;;;;;;5239620;28;20068;-74
2022/09/11 07:54:51;;;;;;;2.97;1.38;;;17.50;99.90;;;;;;5225559;28;20066;-74
2022/09/11 07:57:24;;;;;;;1.70;1.60;;;17.60;99.90;;;;;;5225459;28;20051;-74
2022/09/11 07:59:56;;;;;;;1.33;1.23;;;18.00;99.90;;;;;;5242913;28;20041;-74
2022/09/11 08:02:30;;;;;;;1.20;1.10;;;18.10;99.90;;;;;;5241991;28;20052;-74
2022/09/11 08:05:01;;;;;;;2.75;1.10;;;18.30;99.90;;;;;;5209456;28;20056;-74
2022/09/11 08:07:35;;;;;;;1.65;1.25;;;18.40;99.90;;;;;;5227223;28;20364;-74
2022/09/11 08:10:10;;;;;;;1.50;1.40;;;18.50;99.90;;;;;;5240124;28;20044;-74
2022/09/11 08:12:42;;;;;;;2.45;1.23;;;18.00;99.90;;;;;;5239478;28;20146;-74
2022/09/11 08:15:16;;;;;;;3.08;1.60;;;18.10;99.90;;;;;;5238116;28;20060;-74
2022/09/11 08:17:50;;;;;;;1.38;1.27;;;18.40;99.90;;;;;;5222567;28;20036;-74
2022/09/11 08:20:26;;;;;;;1.05;1.05;;;18.60;99.90;;;;;;5222655;28;21010;-74
2022/09/11 08:23:03;;;;;;;1.48;1.38;;;18.70;99.90;;;;;;5239687;28;20040;-74
2022/09/11 08:25:40;;;;;;;1.35;1.25;;;18.90;99.90;;;;;;5222889;28;20029;-74
2022/09/11 08:28:19;;;;;;;1.40;1.30;;;19.00;99.90;;;;;;5238722;28;20047;-74
2022/09/11 08:31:01;;;;;;;1.40;1.30;;;19.30;99.90;;;;;;5238498;28;20039;-75
2022/09/11 08:33:35;;;;;;;1.30;1.20;;;19.10;99.90;;;;;;5220433;28;20234;-74
2022/09/11 08:36:14;;;;;;;1.35;1.23;;;19.30;99.90;;;;;;5239980;28;20040;-74
2022/09/11 08:38:48;;;;;;;1.00;1.00;;;19.10;99.90;;;;;;5239715;28;20040;-74
2022/09/11 08:41:22;;;;;;;1.02;1.02;;;19.70;99.90;;;;;;5238957;28;20344;-74
2022/09/11 08:44:21;;;;;;;1.23;1.10;;;20.00;99.90;;;;;;5221124;28;20353;-74
2022/09/11 08:47:00;;;;;;;1.13;1.00;;;19.60;99.90;;;;;;5220828;28;20329;-74
2022/09/11 08:49:37;;;;;;;1.77;1.23;;;19.30;99.90;;;;;;5238341;28;20036;-74
2022/09/11 08:52:15;;;;;;;1.35;1.20;;;19.20;99.90;;;;;;5235754;28;20412;-74
2022/09/11 08:54:47;;;;;;;3.17;0.80;;;19.20;99.90;;;;;;5221104;28;20047;-74
2022/09/11 08:57:56;;;;;;;2.45;1.25;;;19.30;99.90;;;;;;5223640;28;20029;-74
2022/09/11 09:00:43;;;;;;;2.15;1.17;;;19.30;99.90;;;;;;5222100;28;20036;-74
2022/09/11 09:03:48;;;;;;;0.85;0.85;;;19.60;99.90;;;;;;5220806;28;20226;-74
2022/09/11 09:06:35;;;;;;;1.15;1.10;;;19.30;99.90;;;;;;5210934;28;20066;-74
2022/09/11 09:09:28;;;;;;;1.40;1.30;;;18.90;99.90;;;;;;5205054;28;20029;-74
2022/09/11 09:12:14;;;;;;;0.95;0.95;;;19.10;99.90;;;;;;5205420;28;20191;-74
2022/09/11 09:15:13;;;;;;;1.00;0.93;;;19.20;99.90;;;;;;5221259;28;20269;-74
2022/09/11 09:18:01;;;;;;;1.15;1.05;;;18.90;99.90;;;;;;5237810;28;20328;-74
2022/09/11 09:20:44;;;;;;;1.00;1.00;;;18.90;99.90;;;;;;5221459;28;20345;-74
2022/09/11 09:23:43;;;;;;;1.42;1.33;;;18.70;99.90;;;;;;5203660;28;20043;-74
2022/09/11 09:26:17;;;;;;;1.35;0.90;;;18.60;99.90;;;;;;5219963;28;20619;-74
2022/09/11 09:28:57;;;;;;;1.10;1.00;;;18.60;99.90;;;;;;5221636;28;20239;-74
2022/09/11 09:31:32;;;;;;;0.82;0.82;;;18.80;99.90;;;;;;5221241;28;20036;-74
2022/09/11 09:34:15;;;;;;;2.35;1.15;;;18.80;99.90;;;;;;5217002;28;20036;-74
2022/09/11 09:36:59;;;;;;;1.02;0.93;;;18.50;99.90;;;;;;5201342;28;20050;-74
2022/09/11 09:39:35;;;;;;;0.90;0.90;;;18.70;99.90;;;;;;5198312;28;20032;-74
2022/09/11 09:42:48;;;;;;;1.20;1.10;;;19.00;99.90;;;;;;5218703;28;20040;-74
2022/09/11 09:46:00;;;;;;;1.10;1.00;;;18.90;99.90;;;;;;5234754;28;20044;-74
2022/09/11 09:48:35;;;;;;;1.02;1.00;;;18.60;99.90;;;;;;5227441;28;20330;-74
2022/09/11 09:51:12;;;;;;;1.33;0.95;;;18.60;99.90;;;;;;5220474;28;20048;-74
2022/09/11 09:54:06;;;;;;;0.80;0.80;;;18.60;99.90;;;;;;5219898;28;20040;-74
2022/09/11 09:56:52;;;;;;;0.90;0.90;;;18.50;99.90;;;;;;5219244;28;20258;-74
2022/09/11 09:59:33;;;;;;;1.40;1.30;;;18.50;99.90;;;;;;5221643;28;20050;-73
2022/09/11 10:02:06;;;;;;;1.48;1.05;;;18.50;99.90;;;;;;5219181;28;20040;-72
2022/09/11 10:04:38;;;;;;;1.15;1.15;;;18.70;99.90;;;;;;5209827;28;20309;-73
2022/09/11 10:07:19;;;;;;;1.33;1.23;;;18.30;99.90;;;;;;5236538;28;20040;-73
2022/09/11 10:10:02;;;;;;;1.02;0.93;;;18.30;99.90;;;;;;5220931;28;20041;-73
2022/09/11 10:12:34;;;;;;;1.45;1.05;;;18.30;99.90;;;;;;5233889;28;20024;-73
2022/09/11 10:15:21;;;;;;;2.00;1.15;;;18.50;99.90;;;;;;5237305;28;20055;-73
2022/09/11 10:18:18;;;;;;;1.20;1.00;;;18.90;99.90;;;;;;5220669;28;20025;-74
2022/09/11 10:21:16;;;;;;;2.20;1.40;;;18.70;99.90;;;;;;5224403;28;20309;-74
2022/09/11 10:24:05;;;;;;;1.70;1.30;;;18.80;99.90;;;;;;5236734;28;20460;-73
2022/09/11 10:26:52;;;;;;;1.42;1.27;;;18.80;99.90;;;;;;5218343;28;20044;-74
2022/09/11 10:29:31;;;;;;;1.63;1.52;;;18.00;99.90;;;;;;5203177;28;20042;-74
2022/09/11 10:32:04;;;;;;;2.05;1.70;;;17.30;99.90;;;;;;5221128;28;20021;-73
2022/09/11 10:34:39;;;;;;;1.98;1.70;;;17.20;99.90;;;;;;5201060;28;20040;-72
2022/09/11 10:37:13;;;;;;;2.10;1.90;;;17.20;99.90;;;;;;5218775;28;20037;-73
2022/09/11 10:39:49;;;;;;;3.42;2.00;;;17.20;99.90;;;;;;5234885;28;20028;-73
2022/09/11 10:42:30;;;;;;;1.88;1.77;;;17.30;99.90;;;;;;5218622;28;20166;-72
2022/09/11 10:45:15;;;;;;;2.33;2.00;;;17.40;99.90;;;;;;5216211;28;20035;-73
2022/09/11 10:47:49;;;;;;;1.80;1.70;;;17.40;99.90;;;;;;5218064;28;20233;-73
2022/09/11 10:50:33;;;;;;;2.75;2.55;;;17.40;99.90;;;;;;5234568;28;20039;-72
2022/09/11 10:53:20;;;;;;;2.33;1.55;;;17.90;99.90;;;;;;5234639;28;20040;-71
2022/09/11 10:55:59;;;;;;;1.60;1.50;;;18.50;99.90;;;;;;5216339;28;20127;-74
2022/09/11 10:58:37;;;;;;;1.70;1.60;;;19.10;99.90;;;;;;5217283;28;20029;-73
2022/09/11 11:01:11;;;;;;;2.50;1.70;;;20.10;99.90;;;;;;5215909;28;20470;-74
2022/09/11 11:03:45;;;;;;;;;;;20.00;99.90;;;;;;5216359;28;20036;-74
2022/09/11 11:07:10;;;;;;;2.75;1.75;;;19.40;99.90;;;;;;5206214;28;19928;-74
2022/09/11 11:10:30;;;;;;;2.05;1.70;;;18.50;99.90;;;;;;5223162;28;20023;-74
2022/09/11 11:13:45;;;;;;;3.92;1.65;;;17.90;99.90;;;;;;5219262;28;20044;-73
2022/09/11 11:16:35;;;;;;;1.42;1.33;;;17.60;99.90;;;;;;5233262;28;20306;-74
2022/09/11 11:19:28;;;;;;;1.63;1.52;;;17.60;99.90;;;;;;5234551;28;20067;-73
2022/09/11 11:22:33;;;;;;;1.70;1.60;;;17.20;99.90;;;;;;5236289;28;20220;-74
2022/09/11 11:25:26;;;;;;;1.87;1.77;;;16.80;99.90;;;;;;5216482;28;20045;-74
2022/09/11 11:28:31;;;;;;;1.67;1.58;;;16.30;99.90;;;;;;5221103;28;20036;-74
2022/09/11 11:31:38;;;;;;;1.50;1.40;;;16.10;99.90;;;;;;5240498;28;20044;-73
2022/09/11 11:34:55;;;;;;;1.48;1.38;;;15.80;99.90;;;;;;5224979;28;20045;-73
2022/09/11 11:37:45;;;;;;;1.77;1.63;;;15.90;99.90;;;;;;5235757;28;20066;-72
2022/09/11 11:40:35;;;;;;;2.15;1.58;;;15.90;99.90;;;;;;5240030;28;20054;-72
2022/09/11 11:43:20;;;;;;;1.25;1.23;;;16.00;99.90;;;;;;5223070;28;20280;-72
2022/09/11 11:46:07;;;;;;;1.65;1.55;;;16.10;99.90;;;;;;5224957;28;20028;-72
2022/09/11 11:49:00;;;;;;;1.73;1.63;;;16.20;99.90;;;;;;5224629;28;20051;-72
2022/09/11 11:51:48;;;;;;;1.70;1.60;;;16.30;99.90;;;;;;5224014;28;20282;-73
2022/09/11 11:54:36;;;;;;;3.53;1.63;;;16.40;99.90;;;;;;5223629;28;20036;-74
2022/09/11 11:57:21;;;;;;;1.50;1.40;;;16.50;99.90;;;;;;5222718;28;20040;-72
2022/09/11 12:00:08;;;;;;;1.70;1.60;;;16.70;99.90;;;;;;5222504;28;20028;-73
2022/09/11 12:03:02;;;;;;;1.38;1.27;;;16.80;99.90;;;;;;5240134;28;20047;-72
2022/09/11 12:05:33;;;;;;;1.20;1.20;;;17.00;99.90;;;;;;5213162;28;20054;-74
2022/09/11 12:08:14;;;;;;;1.52;1.42;;;17.10;99.90;;;;;;5241109;28;20046;-74
2022/09/11 12:10:56;;;;;;;1.50;1.20;;;17.10;99.90;;;;;;5243235;28;20316;-73
2022/09/11 12:13:35;;;;;;;1.20;1.10;;;17.10;99.90;;;;;;5221907;28;20047;-74
2022/09/11 12:16:27;;;;;;;1.15;1.08;;;16.90;99.90;;;;;;5209254;28;20040;-74
2022/09/11 12:19:16;;;;;;;1.08;1.05;;;16.80;99.90;;;;;;5222982;28;20050;-74
2022/09/11 12:21:53;;;;;;;1.27;1.20;;;16.70;99.90;;;;;;5238837;28;20366;-74
2022/09/11 12:24:57;;;;;;;0.88;0.88;;;16.40;99.90;;;;;;5241250;28;20211;-74
2022/09/11 12:27:34;;;;;;;1.48;1.38;;;15.90;99.90;;;;;;5223356;28;20345;-74
2022/09/11 12:30:15;;;;;;;1.33;1.27;;;15.50;99.90;;;;;;5240337;28;20079;-75
2022/09/11 12:32:47;;;;;;;1.35;1.25;;;15.30;99.90;;;;;;5239781;28;20421;-74
2022/09/11 12:35:30;;;;;;;0.90;0.90;;;15.10;99.90;;;;;;5240677;28;20353;-73
2022/09/11 12:38:37;;;;;;;1.10;1.10;;;14.90;99.90;;;;;;5237848;28;20303;-74
2022/09/11 12:41:30;;;;;;;0.70;0.70;;;15.00;99.90;;;;;;5221887;28;20253;-74
2022/09/11 12:44:05;;;;;;;0.85;0.85;;;15.10;99.90;;;;;;5239843;28;20273;-74
2022/09/11 12:46:39;;;;;;;0.90;0.90;;;15.30;99.90;;;;;;5221727;28;20378;-74
2022/09/11 12:49:18;;;;;;;;;;;15.40;99.90;;;;;;5241060;28;20040;-73
2022/09/11 12:51:57;;;;;;;0.73;0.73;;;15.60;99.90;;;;;;5205968;28;20113;-74
2022/09/11 12:54:43;;;;;;;0.90;0.90;;;15.80;99.90;;;;;;5240243;28;20222;-73
2022/09/11 12:57:25;;;;;;;1.08;1.00;;;16.00;99.90;;;;;;5239308;28;20033;-74
2022/09/11 13:00:22;;;;;;;0.90;0.90;;;16.20;99.90;;;;;;5221240;28;20151;-73
2022/09/11 13:02:57;;;;;;;0.90;0.90;;;16.40;99.90;;;;;;5240756;28;20135;-73
2022/09/11 13:05:38;;;;;;;;;;;16.70;99.90;;;;;;5228653;28;20551;-74
2022/09/11 13:08:22;;;;;;;0.75;0.75;;;17.30;99.90;;;;;;5221033;28;20228;-74
2022/09/11 13:11:42;;;;;;;0.80;0.80;;;18.00;99.90;;;;;;5221571;28;20206;-74
2022/09/11 13:14:29;;;;;;;0.70;0.70;;;18.90;99.90;;;;;;5220193;28;20026;-74
2022/09/11 13:17:03;;;;;;;1.30;0.80;;;18.50;99.90;;;;;;5238814;28;20234;-73
2022/09/11 13:19:38;;;;;;;;;;;18.10;99.90;;;;;;5220667;28;20352;-74
2022/09/11 13:22:29;;;;;;;0.80;0.80;;;18.00;99.90;;;;;;5221181;28;20122;-74
2022/09/11 13:25:30;;;;;;;0.70;0.70;;;18.50;99.90;;;;;;5221632;28;20044;-74
2022/09/11 13:28:05;;;;;;;0.70;0.70;;;19.90;99.90;;;;;;5231482;28;20040;-74
2022/09/11 13:31:02;;;;;;;0.63;0.63;;;19.70;99.90;;;;;;5220054;28;20521;-74
2022/09/11 13:33:39;;;;;;;0.80;0.80;;;19.70;99.90;;;;;;5239589;28;20557;-74
2022/09/11 13:36:14;;;;;;;0.70;0.70;;;20.70;99.90;;;;;;5222401;28;20040;-75
2022/09/11 13:38:53;;;;;;;0.45;0.45;;;21.90;99.90;;;;;;5219660;28;20029;-74
2022/09/11 13:41:42;;;;;;;0.70;0.70;;;22.20;99.90;;;;;;5202407;28;20043;-72
2022/09/11 13:44:43;;;;;;;0.50;0.50;;;21.60;99.90;;;;;;5221010;28;20286;-73
2022/09/11 13:47:23;;;;;;;0.80;0.60;;;21.40;99.90;;;;;;5238525;28;20025;-72
2022/09/11 13:50:01;;;;;;;1.65;0.70;;;22.30;99.90;;;;;;5237735;28;20032;-73
2022/09/11 13:52:35;;;;;;;0.50;0.50;;;23.50;99.90;;;;;;5220314;28;20032;-73
2022/09/11 13:55:25;;;;;;;0.60;0.60;;;22.60;99.90;;;;;;5220200;28;20057;-72
2022/09/11 13:58:02;;;;;;;0.50;0.50;;;21.60;99.90;;;;;;5239148;28;20050;-73